Time;durP1;ratioP1;P1;durP2;ratioP2;P2;SDS_P1;SDS_P2;PMS_P1;PMS_P2;Temp;Humidity;BMP_temperature;BMP_pressure;BME280_temperature;BME280_humidity;BME280_pressure;Samples;Min_cycle;Max_cycle;Signal;HPM_P1;HPM_P2
2021/03/21 00:00:26;;;;;;;2.70;1.07;;;6.80;91.30;;;;;;4897147;29;20076;-69
2021/03/21 00:02:53;;;;;;;3.97;1.73;;;6.80;91.30;;;;;;4896968;29;20109;-69
2021/03/21 00:05:20;;;;;;;2.87;1.53;;;6.80;91.30;;;;;;4891626;29;20577;-69
2021/03/21 00:07:55;;;;;;;4.87;1.63;;;6.70;91.40;;;;;;4898242;29;20088;-68
2021/03/21 00:10:22;;;;;;;4.20;2.40;;;6.70;91.40;;;;;;4897654;29;20044;-69
2021/03/21 00:12:49;;;;;;;3.43;2.20;;;6.70;91.50;;;;;;4881619;29;20040;-69
2021/03/21 00:15:15;;;;;;;3.20;1.87;;;6.70;91.50;;;;;;4897203;29;20048;-69
2021/03/21 00:17:42;;;;;;;3.60;2.17;;;6.70;91.50;;;;;;4896933;29;20701;-69
2021/03/21 00:20:12;;;;;;;5.20;2.53;;;6.70;91.50;;;;;;4896139;29;20053;-72
2021/03/21 00:22:38;;;;;;;4.83;2.30;;;6.70;91.60;;;;;;4898079;29;20052;-69
2021/03/21 00:25:09;;;;;;;3.47;1.90;;;6.70;91.60;;;;;;4896980;29;20382;-69
2021/03/21 00:27:36;;;;;;;3.97;2.00;;;6.70;91.60;;;;;;4897633;29;20504;-69
2021/03/21 00:30:09;;;;;;;3.73;2.00;;;6.70;91.60;;;;;;4884258;29;20032;-71
2021/03/21 00:32:35;;;;;;;3.20;1.83;;;6.70;91.60;;;;;;4896722;29;20112;-69
2021/03/21 00:35:04;;;;;;;5.80;2.70;;;6.70;91.70;;;;;;4896357;29;20092;-69
2021/03/21 00:37:31;;;;;;;5.53;2.70;;;6.70;91.70;;;;;;4896263;29;20041;-69
2021/03/21 00:39:58;;;;;;;5.87;3.27;;;6.70;91.70;;;;;;4896400;29;20075;-69
2021/03/21 00:42:24;;;;;;;4.23;2.73;;;6.70;91.70;;;;;;4896806;29;20092;-69
2021/03/21 00:44:50;;;;;;;4.13;2.20;;;6.70;91.80;;;;;;4896069;29;20059;-69
2021/03/21 00:47:17;;;;;;;4.70;2.73;;;6.60;91.70;;;;;;4896586;29;20044;-69
2021/03/21 00:49:44;;;;;;;4.43;2.50;;;6.70;91.80;;;;;;4880062;29;20037;-69
2021/03/21 00:52:11;;;;;;;4.80;2.90;;;6.60;91.70;;;;;;4895326;29;20044;-69
2021/03/21 00:54:37;;;;;;;4.43;2.50;;;6.70;91.80;;;;;;4880609;29;20049;-69
2021/03/21 00:57:04;;;;;;;3.67;2.03;;;6.60;91.70;;;;;;4897173;29;20044;-69
2021/03/21 00:59:31;;;;;;;4.03;2.00;;;6.70;91.80;;;;;;4896389;29;20048;-69
2021/03/21 01:01:58;;;;;;;3.73;1.70;;;6.70;91.80;;;;;;4895953;29;20068;-69
2021/03/21 01:04:25;;;;;;;4.30;2.00;;;6.70;91.80;;;;;;4893288;29;20159;-69
2021/03/21 01:06:52;;;;;;;4.87;1.60;;;6.70;91.80;;;;;;4895779;29;20417;-69
2021/03/21 01:09:18;;;;;;;3.97;2.13;;;6.70;91.80;;;;;;4895627;29;20044;-69
2021/03/21 01:11:45;;;;;;;3.97;2.43;;;6.70;91.80;;;;;;4895735;29;20386;-69
2021/03/21 01:14:12;;;;;;;4.40;2.20;;;6.60;91.80;;;;;;4894170;29;20581;-70
2021/03/21 01:16:41;;;;;;;3.40;1.87;;;6.60;91.80;;;;;;4893866;29;20044;-69
2021/03/21 01:19:16;;;;;;;2.53;1.20;;;6.60;91.90;;;;;;4896986;29;20055;-69
2021/03/21 01:21:44;;;;;;;3.30;1.57;;;6.60;91.90;;;;;;4896825;29;20056;-69
2021/03/21 01:24:21;;;;;;;3.70;1.70;;;6.60;91.90;;;;;;4911385;29;20397;-69
2021/03/21 01:26:48;;;;;;;3.70;1.60;;;6.70;91.90;;;;;;4896845;29;20055;-69
2021/03/21 01:29:15;;;;;;;3.90;1.93;;;6.70;91.90;;;;;;4882211;29;20072;-69
2021/03/21 01:31:42;;;;;;;3.17;1.50;;;6.60;91.90;;;;;;4893490;29;20445;-69
2021/03/21 01:34:11;;;;;;;3.90;1.50;;;6.70;91.90;;;;;;4894042;29;20041;-69
2021/03/21 01:36:39;;;;;;;2.87;1.37;;;6.70;91.90;;;;;;4895732;29;20044;-69
2021/03/21 01:39:17;;;;;;;2.73;1.37;;;6.60;91.90;;;;;;4890862;29;20489;-69
2021/03/21 01:41:44;;;;;;;2.43;1.00;;;6.70;91.90;;;;;;4896393;29;20037;-69
2021/03/21 01:44:14;;;;;;;2.00;0.90;;;6.60;91.90;;;;;;4896369;29;20052;-69
2021/03/21 01:46:56;;;;;;;2.90;1.03;;;6.70;92.20;;;;;;4896772;29;20060;-69
2021/03/21 01:49:29;;;;;;;3.07;1.30;;;6.70;91.90;;;;;;4894999;29;20047;-69
2021/03/21 01:51:57;;;;;;;5.33;1.10;;;6.60;91.90;;;;;;4896418;29;20060;-69
2021/03/21 01:54:26;;;;;;;2.10;1.00;;;6.60;92.00;;;;;;4894768;29;20053;-69
2021/03/21 01:56:54;;;;;;;3.33;1.60;;;6.60;92.00;;;;;;4896717;29;20029;-69
2021/03/21 01:59:26;;;;;;;1.63;0.77;;;6.60;92.00;;;;;;4896889;29;20501;-69
2021/03/21 02:01:55;;;;;;;1.90;0.90;;;6.60;92.00;;;;;;4895059;29;20060;-69
2021/03/21 02:04:21;;;;;;;2.03;0.80;;;6.60;92.10;;;;;;4911112;29;20049;-69
2021/03/21 02:07:09;;;;;;;1.83;1.00;;;6.60;92.00;;;;;;4896423;29;20520;-69
2021/03/21 02:09:47;;;;;;;2.30;0.50;;;6.60;92.10;;;;;;4896678;29;20044;-69
2021/03/21 02:12:55;;;;;;;1.30;0.60;;;6.60;92.10;;;;;;4910733;29;20169;-69
2021/03/21 02:15:43;;;;;;;1.80;0.87;;;6.60;92.00;;;;;;4898921;29;20405;-69
2021/03/21 02:18:15;;;;;;;2.37;0.93;;;6.60;92.00;;;;;;4910955;29;20048;-69
2021/03/21 02:21:03;;;;;;;2.20;0.90;;;6.60;92.10;;;;;;4896621;29;20485;-69
2021/03/21 02:24:10;;;;;;;1.57;0.70;;;6.60;92.10;;;;;;4896048;29;20041;-69
2021/03/21 02:27:00;;;;;;;1.30;0.60;;;6.60;92.10;;;;;;4891252;29;20037;-70
2021/03/21 02:29:43;;;;;;;1.27;0.60;;;6.60;92.10;;;;;;4896654;29;20044;-69
2021/03/21 02:32:13;;;;;;;1.23;0.60;;;6.60;92.10;;;;;;4894943;29;20041;-69
2021/03/21 02:34:56;;;;;;;1.97;0.80;;;6.60;92.10;;;;;;4895948;29;20048;-72
2021/03/21 02:37:55;;;;;;;2.03;1.10;;;6.60;92.10;;;;;;4894568;29;20457;-72
2021/03/21 02:40:54;;;;;;;2.30;1.10;;;6.60;92.10;;;;;;4892469;29;20080;-72
2021/03/21 02:43:26;;;;;;;2.53;1.17;;;6.60;92.20;;;;;;4880139;29;20402;-72
2021/03/21 02:45:58;;;;;;;3.33;1.48;;;6.60;92.20;;;;;;4896248;29;20404;-72
2021/03/21 02:48:29;;;;;;;3.80;2.20;;;6.60;92.20;;;;;;4896095;29;20116;-72
2021/03/21 02:51:04;;;;;;;3.87;2.20;;;6.60;92.20;;;;;;4896560;29;20037;-72
2021/03/21 02:53:41;;;;;;;4.70;1.93;;;6.60;92.20;;;;;;4896582;29;20041;-69
2021/03/21 02:56:12;;;;;;;3.60;1.83;;;6.60;92.20;;;;;;4879174;29;20112;-69
2021/03/21 02:59:05;;;;;;;3.50;2.13;;;6.60;92.20;;;;;;4896034;29;20141;-70
2021/03/21 03:01:38;;;;;;;3.03;1.83;;;6.60;92.20;;;;;;4913099;29;20060;-69
2021/03/21 03:04:11;;;;;;;4.20;2.40;;;6.60;92.30;;;;;;4882926;29;20052;-69
2021/03/21 03:06:42;;;;;;;4.50;2.67;;;6.60;92.30;;;;;;4899756;29;20058;-69
2021/03/21 03:09:23;;;;;;;3.13;1.60;;;6.60;92.30;;;;;;4899086;29;20037;-69
2021/03/21 03:12:02;;;;;;;4.43;2.70;;;6.60;92.30;;;;;;4899527;29;20390;-69
2021/03/21 03:14:34;;;;;;;4.03;2.60;;;6.60;92.30;;;;;;4899207;29;20044;-69
2021/03/21 03:17:38;;;;;;;4.47;2.83;;;6.60;92.30;;;;;;4882769;29;20521;-69
2021/03/21 03:20:38;;;;;;;4.97;2.72;;;6.60;92.70;;;;;;4898454;29;20059;-69
2021/03/21 03:23:12;;;;;;;5.13;2.83;;;6.50;92.50;;;;;;4897643;29;20089;-69
2021/03/21 03:25:50;;;;;;;4.90;2.47;;;6.40;92.60;;;;;;4892928;29;20053;-69
2021/03/21 03:28:42;;;;;;;4.83;2.97;;;6.40;92.60;;;;;;4887911;29;20045;-69
2021/03/21 03:31:13;;;;;;;5.07;3.03;;;6.40;92.70;;;;;;4899434;29;20052;-69
2021/03/21 03:33:41;;;;;;;4.70;2.80;;;6.40;92.70;;;;;;4890669;29;20048;-69
2021/03/21 03:36:11;;;;;;;7.73;3.80;;;6.40;92.80;;;;;;4913131;29;20119;-69
2021/03/21 03:38:41;;;;;;;4.53;2.83;;;6.40;92.90;;;;;;4897128;29;20041;-69
2021/03/21 03:41:34;;;;;;;5.63;3.70;;;6.40;92.90;;;;;;4894858;29;20043;-69
2021/03/21 03:44:18;;;;;;;5.97;3.42;;;6.40;92.90;;;;;;4897287;29;20040;-69
2021/03/21 03:46:48;;;;;;;5.37;3.60;;;6.40;92.90;;;;;;4889502;29;20052;-69
2021/03/21 03:49:48;;;;;;;6.23;3.90;;;6.40;92.90;;;;;;4896339;29;20389;-69
2021/03/21 03:52:24;;;;;;;6.50;3.80;;;6.40;92.90;;;;;;4893914;29;20044;-69
2021/03/21 03:55:06;;;;;;;6.43;4.20;;;6.40;92.90;;;;;;4888764;29;20586;-69
2021/03/21 03:57:38;;;;;;;5.33;3.23;;;6.40;93.00;;;;;;4898006;29;20040;-69
2021/03/21 04:00:31;;;;;;;7.35;4.78;;;6.40;93.00;;;;;;4895277;29;20041;-69
2021/03/21 04:03:31;;;;;;;6.35;3.80;;;6.40;93.10;;;;;;4892671;29;20155;-69
2021/03/21 04:06:03;;;;;;;7.63;4.80;;;6.40;93.10;;;;;;4909757;29;20044;-69
2021/03/21 04:08:57;;;;;;;8.00;4.50;;;6.40;93.20;;;;;;4888450;29;20044;-69
2021/03/21 04:11:36;;;;;;;6.57;4.00;;;6.40;93.20;;;;;;4895087;29;20044;-73
2021/03/21 04:14:13;;;;;;;8.00;5.13;;;6.40;93.20;;;;;;4899465;29;20059;-69
2021/03/21 04:16:57;;;;;;;6.97;4.37;;;6.40;93.30;;;;;;4890801;29;20199;-69
2021/03/21 04:19:27;;;;;;;7.00;3.90;;;6.40;93.30;;;;;;4911927;29;20057;-69
2021/03/21 04:22:07;;;;;;;5.50;3.40;;;6.40;93.30;;;;;;4893087;29;20120;-69
2021/03/21 04:24:44;;;;;;;7.17;4.07;;;6.40;93.30;;;;;;4897353;29;20059;-69
2021/03/21 04:27:17;;;;;;;7.37;4.67;;;6.40;93.30;;;;;;4896770;29;20461;-69
2021/03/21 04:30:02;;;;;;;6.63;3.83;;;6.40;93.40;;;;;;4900071;29;20048;-69
2021/03/21 04:32:39;;;;;;;7.03;3.93;;;6.40;93.40;;;;;;4888092;29;20052;-69
2021/03/21 04:35:15;;;;;;;8.40;4.80;;;6.40;93.40;;;;;;4896454;29;20041;-70
2021/03/21 04:37:45;;;;;;;8.43;4.67;;;6.40;93.40;;;;;;4911621;29;20041;-69
2021/03/21 04:40:14;;;;;;;8.70;4.93;;;6.40;93.40;;;;;;4896642;29;20123;-69
2021/03/21 04:42:54;;;;;;;6.43;3.63;;;6.50;93.50;;;;;;4897812;29;20108;-69
2021/03/21 04:45:34;;;;;;;6.00;3.43;;;6.50;93.40;;;;;;4890588;29;20470;-69
2021/03/21 04:48:03;;;;;;;5.67;2.90;;;6.50;93.40;;;;;;4911970;29;20397;-69
2021/03/21 04:50:32;;;;;;;6.07;3.07;;;6.50;93.40;;;;;;4892472;29;20063;-69
2021/03/21 04:53:30;;;;;;;9.83;4.43;;;6.50;93.40;;;;;;4897915;29;20048;-69
2021/03/21 04:56:05;;;;;;;9.07;4.50;;;6.50;93.40;;;;;;4911378;29;20040;-69
2021/03/21 04:58:42;;;;;;;6.87;3.73;;;6.50;93.40;;;;;;4896137;29;20116;-69
2021/03/21 05:01:44;;;;;;;8.40;4.37;;;6.50;93.40;;;;;;4890551;29;20036;-69
2021/03/21 05:04:18;;;;;;;8.67;4.50;;;6.60;93.40;;;;;;4829733;29;20411;-69
2021/03/21 05:06:56;;;;;;;6.40;3.60;;;6.60;93.40;;;;;;4897626;29;20033;-69
2021/03/21 05:09:28;;;;;;;7.03;3.77;;;6.60;93.40;;;;;;4896007;29;20512;-69
2021/03/21 05:12:22;;;;;;;9.50;5.30;;;6.60;93.40;;;;;;4897413;29;20040;-69
2021/03/21 05:15:04;;;;;;;6.75;3.40;;;6.60;93.40;;;;;;4893361;29;20073;-69
2021/03/21 05:17:40;;;;;;;7.07;3.33;;;6.60;93.40;;;;;;4897082;29;20044;-69
2021/03/21 05:20:16;;;;;;;7.93;3.70;;;6.60;93.40;;;;;;4889920;29;20040;-69
2021/03/21 05:22:49;;;;;;;11.33;5.30;;;6.70;93.40;;;;;;4891566;29;20040;-69
2021/03/21 05:25:18;;;;;;;;;;;6.70;93.40;;;;;;4892362;29;20048;-69
2021/03/21 05:27:54;;;;;;;8.30;4.30;;;6.60;93.40;;;;;;4897172;29;19923;-69
2021/03/21 05:30:30;;;;;;;7.67;5.00;;;6.60;93.40;;;;;;4911364;29;20048;-69
2021/03/21 05:32:57;;;;;;;9.53;4.87;;;6.70;93.30;;;;;;4896882;29;20043;-69
2021/03/21 05:35:29;;;;;;;8.57;4.45;;;6.60;93.30;;;;;;4890269;29;20067;-69
2021/03/21 05:38:30;;;;;;;9.27;4.67;;;6.70;93.30;;;;;;4896998;29;20100;-69
2021/03/21 05:41:34;;;;;;;8.97;4.07;;;6.70;93.20;;;;;;4884457;29;20044;-69
2021/03/21 05:44:13;;;;;;;7.67;3.67;;;6.70;93.20;;;;;;4890983;29;20493;-69
2021/03/21 05:47:17;;;;;;;8.40;3.47;;;6.70;93.20;;;;;;4894643;29;20044;-70
2021/03/21 05:50:02;;;;;;;9.20;3.97;;;6.70;93.20;;;;;;4884820;29;20122;-69
2021/03/21 05:52:53;;;;;;;6.37;3.40;;;6.70;93.20;;;;;;4893015;29;20045;-69
2021/03/21 05:55:32;;;;;;;4.65;2.45;;;6.70;93.10;;;;;;4888298;29;20100;-69
2021/03/21 05:58:29;;;;;;;5.73;3.00;;;6.70;93.10;;;;;;4890076;29;20040;-69
2021/03/21 06:01:39;;;;;;;5.13;2.20;;;6.80;93.10;;;;;;4894929;29;20072;-69
2021/03/21 06:04:15;;;;;;;5.73;2.10;;;6.80;93.10;;;;;;4893819;29;20509;-69
2021/03/21 06:07:12;;;;;;;6.73;1.70;;;6.80;93.00;;;;;;4895977;29;20056;-69
2021/03/21 06:09:58;;;;;;;4.87;1.90;;;6.80;92.90;;;;;;4890684;29;20047;-69
2021/03/21 06:12:55;;;;;;;3.53;1.03;;;6.80;92.90;;;;;;4895266;29;20481;-69
2021/03/21 06:16:02;;;;;;;5.37;1.00;;;6.80;92.80;;;;;;4906565;29;20052;-70
2021/03/21 06:18:54;;;;;;;4.90;0.77;;;6.80;92.90;;;;;;4891773;29;20060;-70
2021/03/21 06:21:45;;;;;;;2.70;0.63;;;6.80;92.80;;;;;;4895462;29;20100;-70
2021/03/21 06:24:51;;;;;;;2.30;0.60;;;6.80;92.80;;;;;;4879164;29;20064;-70
2021/03/21 06:27:23;;;;;;;2.47;0.80;;;6.80;92.80;;;;;;4881574;29;20057;-70
2021/03/21 06:30:16;;;;;;;5.15;0.95;;;6.80;92.90;;;;;;4906321;29;20055;-72
2021/03/21 06:33:15;;;;;;;3.80;0.63;;;6.80;92.80;;;;;;4888933;29;20051;-73
2021/03/21 06:36:10;;;;;;;2.43;0.50;;;6.80;92.70;;;;;;4899428;29;20089;-72
2021/03/21 06:38:48;;;;;;;2.67;0.50;;;6.80;92.80;;;;;;4915046;29;20057;-73
2021/03/21 06:41:52;;;;;;;4.87;0.50;;;6.70;92.90;;;;;;4900335;29;20041;-72
2021/03/21 06:45:10;;;;;;;2.80;0.70;;;6.70;92.90;;;;;;4899404;29;20088;-73
2021/03/21 06:47:36;;;;;;;3.03;0.50;;;6.70;92.90;;;;;;4871338;29;20135;-73
2021/03/21 06:50:18;;;;;;;2.67;0.50;;;6.80;93.00;;;;;;4897452;29;20045;-72
2021/03/21 06:53:18;;;;;;;1.53;0.40;;;6.80;92.90;;;;;;4900334;29;20040;-72
2021/03/21 06:55:58;;;;;;;4.07;0.43;;;6.80;92.90;;;;;;4899572;29;20040;-72
2021/03/21 06:58:47;;;;;;;3.93;0.63;;;6.80;92.90;;;;;;4881571;29;20052;-72
2021/03/21 07:01:58;;;;;;;6.43;0.90;;;6.80;92.90;;;;;;4892899;29;20071;-73
2021/03/21 07:04:42;;;;;;;3.23;0.60;;;6.80;92.90;;;;;;4876019;29;20069;-73
2021/03/21 07:07:21;;;;;;;2.83;0.57;;;6.90;92.90;;;;;;4879600;29;20068;-73
2021/03/21 07:10:09;;;;;;;3.27;0.60;;;6.90;92.90;;;;;;4881497;29;20063;-73
2021/03/21 07:12:51;;;;;;;2.43;0.50;;;6.90;92.90;;;;;;4899944;29;20040;-73
2021/03/21 07:15:41;;;;;;;2.83;0.40;;;6.90;93.10;;;;;;4914928;29;20048;-72
2021/03/21 07:18:55;;;;;;;5.17;0.70;;;7.00;92.90;;;;;;4900198;29;20052;-72
2021/03/21 07:21:44;;;;;;;5.07;0.80;;;7.00;92.80;;;;;;4900423;29;20045;-72
2021/03/21 07:24:32;;;;;;;3.50;0.40;;;7.00;92.80;;;;;;4861182;29;20497;-73
2021/03/21 07:27:05;;;;;;;5.90;0.60;;;7.10;92.70;;;;;;4898349;29;20044;-73
2021/03/21 07:29:32;;;;;;;4.60;0.88;;;7.10;92.90;;;;;;4899983;29;20378;-73
2021/03/21 07:32:09;;;;;;;4.90;0.50;;;7.10;92.50;;;;;;4899888;29;20515;-72
2021/03/21 07:34:41;;;;;;;5.70;0.63;;;7.20;92.40;;;;;;4896499;29;20059;-72
2021/03/21 07:37:13;;;;;;;3.38;0.77;;;7.20;92.40;;;;;;4896156;29;20049;-72
2021/03/21 07:39:48;;;;;;;4.50;0.40;;;7.30;92.40;;;;;;4899495;29;20044;-72
2021/03/21 07:42:23;;;;;;;3.77;0.50;;;7.40;92.40;;;;;;4897684;29;20134;-73
2021/03/21 07:45:18;;;;;;;6.83;0.73;;;7.50;92.30;;;;;;4899763;29;20044;-73
2021/03/21 07:48:00;;;;;;;2.97;0.60;;;7.50;92.00;;;;;;4897878;29;20044;-73
2021/03/21 07:50:44;;;;;;;4.80;0.40;;;7.60;92.00;;;;;;4899087;29;20072;-72
2021/03/21 07:53:35;;;;;;;3.63;0.53;;;7.70;92.00;;;;;;4899693;29;20098;-73
2021/03/21 07:56:13;;;;;;;5.90;0.80;;;7.70;91.80;;;;;;4899373;29;20040;-73
2021/03/21 07:59:01;;;;;;;5.20;0.70;;;7.80;91.50;;;;;;4906864;29;20044;-73
2021/03/21 08:01:28;;;;;;;2.37;0.50;;;7.80;91.20;;;;;;4911667;29;20044;-73
2021/03/21 08:04:30;;;;;;;5.67;0.60;;;7.80;91.20;;;;;;4897383;29;20056;-72
2021/03/21 08:07:28;;;;;;;4.10;0.60;;;7.80;91.00;;;;;;4842119;29;20144;-72
2021/03/21 08:09:54;;;;;;;3.53;0.57;;;7.90;91.20;;;;;;4885144;29;20053;-72
2021/03/21 08:12:22;;;;;;;6.83;0.93;;;8.00;91.50;;;;;;4888353;29;20072;-73
2021/03/21 08:14:56;;;;;;;5.32;0.68;;;8.00;90.90;;;;;;4898953;29;20092;-73
2021/03/21 08:17:29;;;;;;;7.20;0.55;;;8.00;90.70;;;;;;4897566;29;20048;-72
2021/03/21 08:20:01;;;;;;;5.28;0.68;;;8.00;90.90;;;;;;4898456;29;20100;-72
2021/03/21 08:22:30;;;;;;;4.77;0.80;;;8.00;90.40;;;;;;4897281;29;20048;-72
2021/03/21 08:25:02;;;;;;;3.83;0.53;;;8.00;90.40;;;;;;4897051;29;20301;-73
2021/03/21 08:27:32;;;;;;;4.18;0.95;;;8.10;90.50;;;;;;4898444;29;20040;-72
2021/03/21 08:30:11;;;;;;;4.80;1.00;;;8.10;90.70;;;;;;4896155;29;20067;-73
2021/03/21 08:32:56;;;;;;;6.77;1.30;;;8.20;90.30;;;;;;4895632;29;20040;-73
2021/03/21 08:35:29;;;;;;;9.32;1.35;;;8.30;90.20;;;;;;4895331;29;20067;-74
2021/03/21 08:38:01;;;;;;;9.48;1.50;;;8.30;89.90;;;;;;4895471;29;20053;-73
2021/03/21 08:40:34;;;;;;;12.48;1.63;;;8.30;89.20;;;;;;4898243;29;20377;-72
2021/03/21 08:43:11;;;;;;;9.05;1.58;;;8.30;88.20;;;;;;4898205;29;20459;-74
2021/03/21 08:45:49;;;;;;;10.93;2.80;;;8.40;87.70;;;;;;4896554;29;20409;-75
2021/03/21 08:48:24;;;;;;;9.93;1.65;;;8.40;87.40;;;;;;4889497;29;20041;-73
2021/03/21 08:51:03;;;;;;;5.72;1.08;;;8.40;87.30;;;;;;4890151;29;20059;-73
2021/03/21 08:53:32;;;;;;;12.80;1.55;;;8.30;88.10;;;;;;4896933;29;20504;-73
2021/03/21 08:56:13;;;;;;;12.80;1.80;;;8.40;86.50;;;;;;4896151;29;20036;-72
2021/03/21 08:58:41;;;;;;;13.65;1.77;;;8.40;86.70;;;;;;4895964;29;20048;-73
2021/03/21 09:01:12;;;;;;;7.20;1.35;;;8.40;87.10;;;;;;4896219;29;20068;-73
2021/03/21 09:03:41;;;;;;;13.88;2.28;;;8.40;87.30;;;;;;4896291;29;20110;-74
2021/03/21 09:06:24;;;;;;;10.77;1.88;;;8.40;86.30;;;;;;4895664;29;20454;-74
2021/03/21 09:08:51;;;;;;;15.00;2.33;;;8.40;86.10;;;;;;4897672;29;20404;-73
2021/03/21 09:11:33;;;;;;;14.07;1.65;;;8.30;85.90;;;;;;4892207;29;20085;-74
2021/03/21 09:14:03;;;;;;;8.63;2.10;;;8.40;85.20;;;;;;4894774;29;20130;-73
2021/03/21 09:16:30;;;;;;;8.05;1.38;;;8.40;85.50;;;;;;4896628;29;20044;-73
2021/03/21 09:19:18;;;;;;;14.75;1.90;;;8.50;85.70;;;;;;4896892;29;20040;-73
2021/03/21 09:21:46;;;;;;;12.80;2.38;;;8.60;84.60;;;;;;4884072;29;20412;-76
2021/03/21 09:24:37;;;;;;;8.57;2.22;;;8.60;82.90;;;;;;4897386;29;20048;-73
2021/03/21 09:27:17;;;;;;;16.85;1.77;;;8.70;83.20;;;;;;4910063;29;20036;-73
2021/03/21 09:29:45;;;;;;;17.05;2.38;;;8.70;82.90;;;;;;4911551;29;20048;-73
2021/03/21 09:32:22;;;;;;;9.45;1.70;;;8.70;82.90;;;;;;4896957;29;20044;-73
2021/03/21 09:34:59;;;;;;;16.77;2.78;;;8.80;82.70;;;;;;4896537;29;20104;-73
2021/03/21 09:37:32;;;;;;;13.02;2.33;;;8.80;81.90;;;;;;4893361;29;20041;-73
2021/03/21 09:40:31;;;;;;;14.15;2.10;;;8.70;81.60;;;;;;4897099;29;20524;-73
2021/03/21 09:42:59;;;;;;;10.77;1.40;;;8.60;80.70;;;;;;4883659;29;20049;-73
2021/03/21 09:45:26;;;;;;;20.50;3.05;;;8.50;81.60;;;;;;4895524;29;20052;-72
2021/03/21 09:47:56;;;;;;;7.72;1.50;;;8.60;80.90;;;;;;4892579;29;20048;-73
2021/03/21 09:50:46;;;;;;;10.88;2.10;;;8.60;80.70;;;;;;4888304;29;20097;-73
2021/03/21 09:53:31;;;;;;;11.60;1.75;;;8.70;80.80;;;;;;4895333;29;20044;-73
2021/03/21 09:56:01;;;;;;;10.18;2.22;;;8.70;79.30;;;;;;4886888;29;20048;-73
2021/03/21 09:58:33;;;;;;;10.13;1.58;;;8.70;80.20;;;;;;4895792;29;20052;-72
2021/03/21 10:01:19;;;;;;;12.32;2.10;;;8.80;79.80;;;;;;4891647;29;20052;-74
2021/03/21 10:03:54;;;;;;;10.40;2.05;;;8.80;78.10;;;;;;4894483;29;20060;-73
2021/03/21 10:06:25;;;;;;;13.05;2.55;;;8.70;78.40;;;;;;4894194;29;20045;-73
2021/03/21 10:09:07;;;;;;;12.63;2.53;;;8.80;78.90;;;;;;4896662;29;20055;-73
2021/03/21 10:11:38;;;;;;;11.13;2.00;;;8.80;77.30;;;;;;4890519;29;20438;-72
2021/03/21 10:14:26;;;;;;;7.90;1.50;;;8.80;78.00;;;;;;4899649;29;20045;-72
2021/03/21 10:16:54;;;;;;;12.45;2.30;;;8.80;78.30;;;;;;4885930;29;20052;-72
2021/03/21 10:19:45;;;;;;;8.73;1.92;;;8.90;79.00;;;;;;4895543;29;20076;-74
2021/03/21 10:22:35;;;;;;;9.48;2.28;;;9.00;78.10;;;;;;4896625;29;20036;-73
2021/03/21 10:25:24;;;;;;;10.10;1.52;;;9.10;77.60;;;;;;4879196;29;20063;-72
2021/03/21 10:27:51;;;;;;;13.32;2.80;;;9.10;78.20;;;;;;4895075;29;20045;-73
2021/03/21 10:30:24;;;;;;;16.23;1.92;;;9.10;76.60;;;;;;4891644;29;20032;-72
2021/03/21 10:33:28;;;;;;;9.80;1.70;;;9.10;76.80;;;;;;4891232;29;20041;-72
2021/03/21 10:35:56;;;;;;;10.43;1.65;;;9.20;77.00;;;;;;4890694;29;20035;-74
2021/03/21 10:38:44;;;;;;;8.13;1.95;;;9.20;77.40;;;;;;4896561;29;20092;-73
2021/03/21 10:41:11;;;;;;;13.15;2.10;;;9.30;77.40;;;;;;4886181;29;20517;-73
2021/03/21 10:43:57;;;;;;;7.07;1.95;;;9.40;77.70;;;;;;4891136;29;20053;-73
2021/03/21 10:46:48;;;;;;;5.85;1.42;;;9.40;77.90;;;;;;4883780;29;20049;-73
2021/03/21 10:49:44;;;;;;;8.20;1.27;;;9.50;78.50;;;;;;4895074;29;20358;-73
2021/03/21 10:52:32;;;;;;;12.95;2.03;;;9.60;78.40;;;;;;4910865;29;20040;-69
2021/03/21 10:55:11;;;;;;;10.68;1.55;;;9.50;77.80;;;;;;4892247;29;20041;-69
2021/03/21 10:57:44;;;;;;;11.10;2.33;;;9.50;77.50;;;;;;4910832;29;20045;-69
2021/03/21 11:00:21;;;;;;;15.27;2.50;;;9.50;77.20;;;;;;4890511;29;20048;-69
2021/03/21 11:02:59;;;;;;;10.23;2.17;;;9.40;77.00;;;;;;4886157;29;20041;-69
2021/03/21 11:05:32;;;;;;;11.73;1.90;;;9.60;77.00;;;;;;4894676;29;20113;-70
2021/03/21 11:08:27;;;;;;;8.93;1.80;;;9.70;76.40;;;;;;4895322;29;20051;-70
2021/03/21 11:11:12;;;;;;;9.52;2.38;;;9.70;76.00;;;;;;4889654;29;20432;-69
2021/03/21 11:13:39;;;;;;;13.55;2.90;;;9.70;76.00;;;;;;4891703;29;20052;-69
2021/03/21 11:16:10;;;;;;;7.47;1.60;;;9.70;76.90;;;;;;4891800;29;20096;-69
2021/03/21 11:18:37;;;;;;;8.82;1.88;;;9.70;76.40;;;;;;4910095;29;20592;-70
2021/03/21 11:21:08;;;;;;;13.57;2.55;;;9.70;76.60;;;;;;4895509;29;20097;-69
2021/03/21 11:23:58;;;;;;;15.02;2.22;;;9.70;74.80;;;;;;4898178;29;20037;-69
2021/03/21 11:26:25;;;;;;;14.57;2.45;;;9.70;74.80;;;;;;4895954;29;20160;-70
2021/03/21 11:29:01;;;;;;;14.35;2.47;;;9.80;74.90;;;;;;4899056;29;20496;-69
2021/03/21 11:31:42;;;;;;;12.25;1.92;;;9.90;74.50;;;;;;4898185;29;20470;-70
2021/03/21 11:34:17;;;;;;;13.85;2.17;;;10.00;74.30;;;;;;4893649;29;20064;-70
2021/03/21 11:36:45;;;;;;;10.30;2.75;;;10.10;73.70;;;;;;4899295;29;20044;-71
2021/03/21 11:39:30;;;;;;;13.07;2.95;;;10.10;72.50;;;;;;4890026;29;20072;-69
2021/03/21 11:41:57;;;;;;;10.73;2.42;;;10.10;73.80;;;;;;4894145;29;20080;-70
2021/03/21 11:44:27;;;;;;;12.45;2.58;;;10.10;73.90;;;;;;4897700;29;20051;-70
2021/03/21 11:46:56;;;;;;;9.77;1.83;;;10.10;71.60;;;;;;4896899;29;20553;-69
2021/03/21 11:49:25;;;;;;;10.43;2.40;;;10.10;72.90;;;;;;4889108;29;20033;-70
2021/03/21 11:52:02;;;;;;;15.60;2.67;;;10.20;72.90;;;;;;4888712;29;20047;-69
2021/03/21 11:54:33;;;;;;;10.02;2.08;;;10.30;72.60;;;;;;4891297;29;20040;-69
2021/03/21 11:57:00;;;;;;;12.65;3.80;;;10.20;72.10;;;;;;4898455;29;20557;-69
2021/03/21 11:59:42;;;;;;;9.90;1.98;;;10.20;72.60;;;;;;4881407;29;20072;-69
2021/03/21 12:02:26;;;;;;;7.43;1.88;;;10.40;73.10;;;;;;4897154;29;20040;-69
2021/03/21 12:04:53;;;;;;;9.48;2.08;;;10.50;73.10;;;;;;4888601;29;20116;-70
2021/03/21 12:07:30;;;;;;;9.70;1.42;;;10.60;73.50;;;;;;4898547;29;20401;-70
2021/03/21 12:09:56;;;;;;;12.25;3.03;;;10.60;73.70;;;;;;4880241;29;20041;-70
2021/03/21 12:12:29;;;;;;;10.95;2.75;;;10.50;71.60;;;;;;4897180;29;20052;-69
2021/03/21 12:14:57;;;;;;;9.98;2.08;;;10.50;72.30;;;;;;4894976;29;20100;-69
2021/03/21 12:17:23;;;;;;;11.23;1.90;;;10.40;73.00;;;;;;4898444;29;20060;-70
2021/03/21 12:19:53;;;;;;;9.93;2.17;;;10.30;72.70;;;;;;4893703;29;20493;-69
2021/03/21 12:22:32;;;;;;;9.07;1.67;;;10.10;72.40;;;;;;4893660;29;20096;-68
2021/03/21 12:25:11;;;;;;;12.32;3.33;;;9.90;73.70;;;;;;4906487;29;20048;-70
2021/03/21 12:27:39;;;;;;;10.00;1.70;;;9.90;73.50;;;;;;4896430;29;20057;-69
2021/03/21 12:30:26;;;;;;;13.10;2.65;;;9.80;73.50;;;;;;4879721;29;20048;-69
2021/03/21 12:33:10;;;;;;;7.50;1.52;;;10.00;73.90;;;;;;4911123;29;20052;-69
2021/03/21 12:35:40;;;;;;;12.85;2.03;;;10.20;74.00;;;;;;4898044;29;20092;-69
2021/03/21 12:38:33;;;;;;;13.02;1.52;;;10.30;73.30;;;;;;4894426;29;20052;-72
2021/03/21 12:41:20;;;;;;;10.52;1.80;;;10.20;73.40;;;;;;4892653;29;20103;-73
2021/03/21 12:44:15;;;;;;;12.77;2.63;;;10.10;72.60;;;;;;4890135;29;20056;-71
2021/03/21 12:46:49;;;;;;;10.98;2.00;;;9.90;73.60;;;;;;4897339;29;20048;-71
2021/03/21 12:49:47;;;;;;;12.18;2.03;;;9.80;73.90;;;;;;4891465;29;20151;-74
2021/03/21 12:52:15;;;;;;;10.30;1.95;;;9.80;73.70;;;;;;4889373;29;20052;-74
2021/03/21 12:54:45;;;;;;;13.77;1.90;;;9.70;73.80;;;;;;4898072;29;20068;-72
2021/03/21 12:57:12;;;;;;;8.05;1.65;;;9.70;73.70;;;;;;4895876;29;20100;-71
2021/03/21 12:59:48;;;;;;;18.17;2.85;;;9.60;73.60;;;;;;4884251;29;20131;-71
2021/03/21 13:02:23;;;;;;;14.88;2.28;;;9.60;72.50;;;;;;4897554;29;20100;-72
2021/03/21 13:04:53;;;;;;;11.93;2.55;;;9.60;73.20;;;;;;4894047;29;20061;-75
2021/03/21 13:07:20;;;;;;;9.23;1.52;;;9.70;73.70;;;;;;4897928;29;20068;-75
2021/03/21 13:09:47;;;;;;;8.30;2.47;;;9.70;74.00;;;;;;4897176;29;20049;-72
2021/03/21 13:12:14;;;;;;;7.82;1.80;;;9.70;73.40;;;;;;4880964;29;20048;-72
2021/03/21 13:14:41;;;;;;;10.40;1.80;;;9.70;73.70;;;;;;4895972;29;20131;-72
2021/03/21 13:17:07;;;;;;;14.73;2.95;;;9.70;73.10;;;;;;4896348;29;20097;-72
2021/03/21 13:19:35;;;;;;;12.20;1.95;;;9.70;72.70;;;;;;4895986;29;20771;-72
2021/03/21 13:22:03;;;;;;;11.07;2.22;;;9.70;73.00;;;;;;4895924;29;20037;-72
2021/03/21 13:24:30;;;;;;;10.30;2.70;;;9.80;73.30;;;;;;4897199;29;20503;-72
2021/03/21 13:26:57;;;;;;;9.63;1.67;;;9.80;73.30;;;;;;4896900;29;20041;-73
2021/03/21 13:29:24;;;;;;;8.25;1.00;;;9.90;74.20;;;;;;4896589;29;20044;-72
2021/03/21 13:31:51;;;;;;;9.18;1.42;;;9.90;73.70;;;;;;4895745;29;20080;-72
2021/03/21 13:34:18;;;;;;;10.20;1.67;;;9.90;73.10;;;;;;4895004;29;20054;-72
2021/03/21 13:36:44;;;;;;;9.32;1.48;;;10.00;73.30;;;;;;4897094;29;20048;-72
2021/03/21 13:39:11;;;;;;;11.30;1.38;;;10.10;73.60;;;;;;4883210;29;20048;-72
2021/03/21 13:41:37;;;;;;;7.03;2.22;;;10.20;73.90;;;;;;4896018;29;20055;-72
2021/03/21 13:44:08;;;;;;;8.20;1.80;;;10.10;73.80;;;;;;4895333;29;20055;-73
2021/03/21 13:46:35;;;;;;;12.63;2.08;;;10.10;73.20;;;;;;4895806;29;20052;-69